Arthur, Arkansas
Current Conditions -  °F | °C
As of 3:53 PM on Sunday 21 Dec 2014 (Local Time) from KRUE Reporting Station
Overcast Overcast  
Wind Chill: 10°   Ceiling: 9500
Heat Index: 10°   Visibility: 10mi
Dew Point:   Wind: 6mph
Humidity: 63%   Direction: 90°E
Pressure: 29.95"   Gusts: NA
Location:  35.2722°N, 92.6766°W
Report Text: KRUE 212153Z AUTO 09005KT 10SM FEW040 SCT075 OVC095 10/03 A2995 RMK AO2 SLP139 T01000033
Loading
Personal Weather Stations






























Interactive Weather Map New forecast layout! Learn more

10-Day Weather Forecast

Advertisements
Track Severe Weather on mobile